createdAt,value
2023-05-09T00:01:16.026Z,20.54
2023-05-09T00:03:43.094Z,20.67
2023-05-09T00:06:12.797Z,20.82
2023-05-09T00:08:39.482Z,20.93
2023-05-09T00:11:06.108Z,20.88
2023-05-09T00:13:34.086Z,20.78
2023-05-09T00:16:01.115Z,20.87
2023-05-09T00:18:28.466Z,20.73
2023-05-09T00:20:54.965Z,20.79
2023-05-09T00:23:21.534Z,20.65
2023-05-09T00:25:48.146Z,20.72
2023-05-09T00:28:14.984Z,20.75
2023-05-09T00:30:41.619Z,20.55
2023-05-09T00:33:08.176Z,20.66
2023-05-09T00:35:35.172Z,20.43
2023-05-09T00:38:01.700Z,20.61
2023-05-09T00:40:29.255Z,20.31
2023-05-09T00:42:58.269Z,20.35
2023-05-09T00:45:25.271Z,19.87
2023-05-09T00:47:51.966Z,19.24
2023-05-09T00:50:19.290Z,19.25
2023-05-09T00:52:45.846Z,19.70
2023-05-09T00:55:13.625Z,19.49
2023-05-09T00:57:40.234Z,18.98
2023-05-09T01:00:13.022Z,19.37
2023-05-09T01:02:52.867Z,19.24
2023-05-09T01:05:20.390Z,19.53
2023-05-09T01:08:08.930Z,19.62
2023-05-09T01:10:40.963Z,19.50
2023-05-09T01:13:15.713Z,19.56
2023-05-09T01:15:50.134Z,19.51
2023-05-09T01:19:02.861Z,19.56
2023-05-09T01:21:32.299Z,19.44
2023-05-09T01:24:20.650Z,19.66
2023-05-09T01:27:22.584Z,19.47
2023-05-09T01:29:55.575Z,19.42
2023-05-09T01:32:27.596Z,19.44
2023-05-09T01:34:57.189Z,19.43
2023-05-09T01:37:30.399Z,19.62
2023-05-09T01:40:00.872Z,19.73
2023-05-09T01:42:38.637Z,19.84
2023-05-09T01:45:06.143Z,19.81
2023-05-09T01:47:32.920Z,19.54
2023-05-09T01:50:01.898Z,19.46
2023-05-09T01:52:29.517Z,19.32
2023-05-09T01:54:56.458Z,19.52
2023-05-09T01:57:23.410Z,19.36
2023-05-09T01:59:50.889Z,19.38
2023-05-09T02:02:17.472Z,19.13
2023-05-09T02:04:44.839Z,19.22
2023-05-09T02:07:12.429Z,19.17
2023-05-09T02:09:38.945Z,19.29
2023-05-09T02:12:06.846Z,18.72
2023-05-09T02:14:33.366Z,19.02
2023-05-09T02:17:06.372Z,18.67
2023-05-09T02:19:35.300Z,18.84
2023-05-09T02:22:04.667Z,18.78
2023-05-09T02:24:33.232Z,18.93
2023-05-09T02:27:02.608Z,18.81
2023-05-09T02:29:39.770Z,18.44
2023-05-09T02:32:11.769Z,18.84
2023-05-09T02:34:38.668Z,18.82
2023-05-09T02:37:06.508Z,18.48
2023-05-09T02:39:33.051Z,18.53
2023-05-09T02:42:10.789Z,18.73
2023-05-09T02:44:38.648Z,18.47
2023-05-09T02:47:06.645Z,18.43
2023-05-09T02:49:33.710Z,18.78
2023-05-09T02:52:01.535Z,18.58
2023-05-09T02:54:28.401Z,18.77
2023-05-09T02:56:54.937Z,18.48
2023-05-09T02:59:21.383Z,18.79
2023-05-09T03:01:47.906Z,18.95
2023-05-09T03:04:14.384Z,18.94
2023-05-09T03:06:41.004Z,18.85
2023-05-09T03:09:07.586Z,18.91
2023-05-09T03:11:36.585Z,18.94
2023-05-09T03:14:04.010Z,18.98
2023-05-09T03:16:31.003Z,18.71
2023-05-09T03:18:57.646Z,18.74
2023-05-09T03:21:24.251Z,18.79
2023-05-09T03:23:51.126Z,18.74
2023-05-09T03:26:17.717Z,18.46
2023-05-09T03:28:46.378Z,18.15
2023-05-09T03:31:12.922Z,18.48
2023-05-09T03:33:39.749Z,18.11
2023-05-09T03:36:06.431Z,17.50
2023-05-09T03:38:32.941Z,18.07
2023-05-09T03:40:59.574Z,17.73
2023-05-09T03:43:26.459Z,17.71
2023-05-09T03:45:52.928Z,17.88
2023-05-09T03:48:20.194Z,18.01
2023-05-09T03:50:46.709Z,17.94
2023-05-09T03:53:13.501Z,17.59
2023-05-09T03:55:40.041Z,17.85
2023-05-09T03:58:06.570Z,18.15
2023-05-09T04:00:33.110Z,18.02
2023-05-09T04:02:59.683Z,18.51
2023-05-09T04:05:27.090Z,18.34
2023-05-09T04:07:53.868Z,18.72
2023-05-09T04:10:20.490Z,18.79
2023-05-09T04:12:47.251Z,18.54
2023-05-09T04:15:14.017Z,18.55
2023-05-09T04:17:40.774Z,19.18
2023-05-09T04:20:08.286Z,19.14
2023-05-09T04:22:34.762Z,19.39
2023-05-09T04:25:02.012Z,19.42
2023-05-09T04:27:28.846Z,19.34
2023-05-09T04:29:55.655Z,19.55
2023-05-09T04:32:23.228Z,19.89
2023-05-09T04:34:49.974Z,19.91
2023-05-09T04:37:17.081Z,19.70
2023-05-09T04:39:44.032Z,20.09
2023-05-09T04:42:10.760Z,20.30
2023-05-09T04:44:37.221Z,20.42
2023-05-09T04:47:03.740Z,20.43
2023-05-09T04:49:30.361Z,20.34
2023-05-09T04:51:56.848Z,20.62
2023-05-09T04:54:23.370Z,20.68
2023-05-09T04:56:50.772Z,20.66
2023-05-09T04:59:17.317Z,20.88
2023-05-09T05:01:44.144Z,20.82
2023-05-09T05:04:10.685Z,21.12
2023-05-09T05:06:37.171Z,21.08
2023-05-09T05:09:03.890Z,21.20
2023-05-09T05:11:30.915Z,21.45
2023-05-09T05:13:57.394Z,21.60
2023-05-09T05:16:23.875Z,21.79
2023-05-09T05:18:50.751Z,21.47
2023-05-09T05:21:17.198Z,21.85
2023-05-09T05:23:43.828Z,21.75
2023-05-09T05:26:10.592Z,22.02
2023-05-09T05:28:37.060Z,22.06
2023-05-09T05:31:03.536Z,22.31
2023-05-09T05:33:30.026Z,22.36
2023-05-09T05:35:56.529Z,22.52
2023-05-09T05:38:23.097Z,22.47
2023-05-09T05:40:49.590Z,22.75
2023-05-09T05:43:16.052Z,22.63
2023-05-09T05:45:42.578Z,22.60
2023-05-09T05:48:09.129Z,22.64
2023-05-09T05:50:36.640Z,22.88
2023-05-09T05:53:03.305Z,22.83
2023-05-09T05:55:29.768Z,22.98
2023-05-09T05:57:56.518Z,22.96
2023-05-09T06:00:22.981Z,22.13
2023-05-09T06:02:49.744Z,22.52
2023-05-09T06:05:16.986Z,22.34
2023-05-09T06:07:44.281Z,22.48
2023-05-09T06:10:11.082Z,22.06
2023-05-09T06:12:37.682Z,22.42
2023-05-09T06:15:07.409Z,22.46
2023-05-09T06:17:34.701Z,22.90
2023-05-09T06:20:01.334Z,22.78
2023-05-09T06:22:27.843Z,23.13
2023-05-09T06:24:54.338Z,23.02
2023-05-09T06:27:20.905Z,22.86
2023-05-09T06:29:47.497Z,23.15
2023-05-09T06:32:13.994Z,23.40
2023-05-09T06:34:41.862Z,23.04
2023-05-09T06:37:08.382Z,22.95
2023-05-09T06:39:34.844Z,23.38
2023-05-09T06:42:01.338Z,23.36
2023-05-09T06:44:28.166Z,23.21
2023-05-09T06:46:55.438Z,23.62
2023-05-09T06:49:22.517Z,23.49
2023-05-09T06:51:49.038Z,23.68
2023-05-09T06:54:17.152Z,23.91
2023-05-09T06:56:43.652Z,23.75
2023-05-09T06:59:13.256Z,23.66
2023-05-09T07:01:40.916Z,23.84
2023-05-09T07:04:07.777Z,24.02
2023-05-09T07:06:34.323Z,23.82
2023-05-09T07:09:00.858Z,23.72
2023-05-09T07:11:27.383Z,22.95
2023-05-09T07:13:53.868Z,23.12
2023-05-09T07:16:22.876Z,23.09
2023-05-09T07:18:49.669Z,23.75
2023-05-09T07:21:16.243Z,23.46
2023-05-09T07:23:42.782Z,24.09
2023-05-09T07:26:09.282Z,24.03
2023-05-09T07:28:35.732Z,23.73
2023-05-09T07:31:02.211Z,23.50
2023-05-09T07:33:28.732Z,23.53
2023-05-09T07:35:55.581Z,23.72
2023-05-09T07:38:22.245Z,23.37
2023-05-09T07:40:48.742Z,23.23
2023-05-09T07:43:15.591Z,23.72
2023-05-09T07:45:42.114Z,24.17
2023-05-09T07:48:09.394Z,24.73
2023-05-09T07:50:35.937Z,25.38
2023-05-09T07:53:02.428Z,25.46
2023-05-09T07:55:29.189Z,25.88
2023-05-09T07:57:55.625Z,25.58
2023-05-09T08:00:23.930Z,25.54
2023-05-09T08:02:51.545Z,24.98
2023-05-09T08:05:18.351Z,23.25
2023-05-09T08:07:45.338Z,23.50
2023-05-09T08:10:12.359Z,23.25
2023-05-09T08:12:39.268Z,23.27
2023-05-09T08:15:06.373Z,21.86
2023-05-09T08:17:33.088Z,22.22
2023-05-09T08:19:59.544Z,21.42
2023-05-09T08:22:26.406Z,21.27
2023-05-09T08:24:52.868Z,21.28
2023-05-09T08:27:19.713Z,21.82
2023-05-09T08:29:46.209Z,21.80
2023-05-09T08:32:13.009Z,21.77
2023-05-09T08:34:39.573Z,21.72
2023-05-09T08:37:06.041Z,21.77
2023-05-09T08:39:34.939Z,21.53
2023-05-09T08:42:02.351Z,21.54
2023-05-09T08:44:30.463Z,22.56
2023-05-09T08:47:00.137Z,22.87
2023-05-09T08:49:26.810Z,22.20
2023-05-09T08:51:53.669Z,22.10
2023-05-09T08:54:22.914Z,22.29
2023-05-09T08:56:50.701Z,22.43
2023-05-09T08:59:18.562Z,22.19
2023-05-09T09:01:45.565Z,23.42
2023-05-09T09:04:12.258Z,22.81
2023-05-09T09:06:39.612Z,22.63
2023-05-09T09:09:08.538Z,23.13
2023-05-09T09:11:36.340Z,23.03
2023-05-09T09:14:12.804Z,22.92
2023-05-09T09:16:41.611Z,22.51
2023-05-09T09:19:12.494Z,22.56
2023-05-09T09:21:42.465Z,22.25
2023-05-09T09:24:14.221Z,21.60
2023-05-09T09:26:46.779Z,22.27
2023-05-09T09:32:02.069Z,21.83
2023-05-09T09:34:28.654Z,21.72
2023-05-09T09:36:55.271Z,21.77
2023-05-09T09:39:22.102Z,21.98
2023-05-09T09:41:49.031Z,22.47
2023-05-09T09:44:22.785Z,23.14
2023-05-09T09:46:50.674Z,23.75
2023-05-09T09:49:22.201Z,23.47
2023-05-09T09:51:53.992Z,23.69
2023-05-09T09:54:20.810Z,22.81
2023-05-09T09:56:49.670Z,23.68
2023-05-09T09:59:18.849Z,24.22
2023-05-09T10:02:05.121Z,24.42
2023-05-09T10:04:35.487Z,23.95
2023-05-09T10:07:04.996Z,24.31
2023-05-09T10:09:32.958Z,24.41
2023-05-09T10:12:09.536Z,24.10
2023-05-09T10:14:36.848Z,24.67
2023-05-09T10:17:05.077Z,24.47
2023-05-09T10:19:32.440Z,24.39
2023-05-09T10:22:04.170Z,24.86
2023-05-09T10:24:34.754Z,24.00
2023-05-09T10:27:06.973Z,23.93
2023-05-09T10:29:36.735Z,24.57
2023-05-09T10:32:18.202Z,27.18
2023-05-09T10:34:48.117Z,28.18
2023-05-09T10:37:16.110Z,27.69
2023-05-09T10:39:42.997Z,29.29
2023-05-09T10:42:09.807Z,29.92
2023-05-09T10:44:37.398Z,28.86
2023-05-09T10:47:04.244Z,27.59
2023-05-09T10:49:31.012Z,27.93
2023-05-09T10:51:57.481Z,26.07
2023-05-09T10:54:33.285Z,25.53
2023-05-09T10:57:00.821Z,25.19
2023-05-09T10:59:57.749Z,25.42
2023-05-09T11:02:34.960Z,25.76
2023-05-09T11:05:15.986Z,25.54
2023-05-09T11:07:43.378Z,25.72
2023-05-09T11:10:20.073Z,25.66
2023-05-09T11:12:58.149Z,24.16
2023-05-09T11:15:26.551Z,24.81
2023-05-09T11:18:07.442Z,24.61
2023-05-09T11:20:37.918Z,23.81
2023-05-09T11:23:05.984Z,23.43
2023-05-09T11:25:33.002Z,24.76
2023-05-09T11:28:01.788Z,25.30
2023-05-09T11:30:42.523Z,25.43
2023-05-09T11:33:31.197Z,25.60
2023-05-09T11:36:19.904Z,25.61
2023-05-09T11:38:47.551Z,25.93
2023-05-09T11:41:15.440Z,26.63
2023-05-09T11:43:42.911Z,27.55
2023-05-09T11:46:09.473Z,27.33
2023-05-09T11:48:39.817Z,27.69
2023-05-09T11:51:07.469Z,27.69
2023-05-09T11:53:34.278Z,28.49
2023-05-09T11:56:04.794Z,28.66
2023-05-09T11:58:31.648Z,29.06
2023-05-09T12:00:58.465Z,30.75
2023-05-09T12:03:25.224Z,30.93
2023-05-09T12:05:51.850Z,30.49
2023-05-09T12:08:18.556Z,29.66
2023-05-09T12:10:45.020Z,30.07
2023-05-09T12:13:12.056Z,28.55
2023-05-09T12:15:38.741Z,28.12
2023-05-09T12:18:07.827Z,28.75
2023-05-09T12:21:00.885Z,28.19
2023-05-09T12:23:27.350Z,27.30
2023-05-09T12:25:55.610Z,27.31
2023-05-09T12:28:25.855Z,27.07
2023-05-09T12:30:53.338Z,27.76
2023-05-09T12:33:21.181Z,27.85
2023-05-09T12:35:48.565Z,26.59
2023-05-09T12:38:22.477Z,26.17
2023-05-09T12:40:50.056Z,27.49
2023-05-09T12:43:17.444Z,27.83
2023-05-09T12:45:44.118Z,26.45
2023-05-09T12:48:11.774Z,28.07
2023-05-09T12:50:38.436Z,27.76
2023-05-09T12:53:05.213Z,24.88
2023-05-09T12:55:39.808Z,26.11
2023-05-09T12:58:06.909Z,25.45
2023-05-09T13:00:46.014Z,25.14
2023-05-09T13:03:25.074Z,25.84
2023-05-09T13:05:58.831Z,25.48
2023-05-09T13:08:26.692Z,25.08
2023-05-09T13:11:00.776Z,25.02
2023-05-09T13:13:34.714Z,25.14
2023-05-09T13:16:03.730Z,25.82
2023-05-09T13:18:30.396Z,25.29
2023-05-09T13:20:57.035Z,26.52
2023-05-09T13:23:23.543Z,26.04
2023-05-09T13:25:50.023Z,27.01
2023-05-09T13:28:16.556Z,26.11
2023-05-09T13:30:43.089Z,26.89
2023-05-09T13:33:24.540Z,26.73
2023-05-09T13:35:51.703Z,26.34
2023-05-09T13:38:18.153Z,26.44
2023-05-09T13:40:44.628Z,25.47
2023-05-09T13:43:11.230Z,25.23
2023-05-09T13:45:37.656Z,25.09
2023-05-09T13:48:04.598Z,25.24
2023-05-09T13:50:31.141Z,25.02
2023-05-09T13:52:58.142Z,24.44
2023-05-09T13:55:26.364Z,23.51
2023-05-09T13:57:52.851Z,23.74
2023-05-09T14:00:21.212Z,22.48
2023-05-09T14:02:48.371Z,21.72
2023-05-09T14:05:15.015Z,21.13
2023-05-09T14:07:42.727Z,21.37
2023-05-09T14:10:11.732Z,21.37
2023-05-09T14:12:39.953Z,21.08
2023-05-09T14:15:07.781Z,20.32
2023-05-09T14:17:34.338Z,19.70
2023-05-09T14:20:00.893Z,20.01
2023-05-09T14:22:28.190Z,19.70
2023-05-09T14:24:56.522Z,19.79
2023-05-09T14:27:23.174Z,19.40
2023-05-09T14:29:50.144Z,19.77
2023-05-09T14:32:17.326Z,18.95
2023-05-09T14:34:44.448Z,19.62
2023-05-09T14:37:14.206Z,19.70
2023-05-09T14:39:42.502Z,19.60
2023-05-09T14:42:11.383Z,19.82
2023-05-09T14:44:38.671Z,19.22
2023-05-09T14:47:05.771Z,18.86
2023-05-09T14:49:32.705Z,18.99
2023-05-09T14:51:59.415Z,18.50
2023-05-09T14:54:25.958Z,18.26
2023-05-09T14:56:52.663Z,18.02
2023-05-09T14:59:19.152Z,18.21
2023-05-09T15:01:46.220Z,18.35
2023-05-09T15:04:12.763Z,18.59
2023-05-09T15:06:39.683Z,18.49
2023-05-09T15:09:06.236Z,18.11
2023-05-09T15:11:43.744Z,18.07
2023-05-09T15:14:14.688Z,17.88
2023-05-09T15:16:41.391Z,18.31
2023-05-09T15:19:08.313Z,18.79
2023-05-09T15:21:35.353Z,18.59
2023-05-09T15:24:02.465Z,18.89
2023-05-09T15:26:29.996Z,18.79
2023-05-09T15:28:56.554Z,18.90
2023-05-09T15:31:24.905Z,19.43
2023-05-09T15:33:51.687Z,19.71
2023-05-09T15:36:18.404Z,19.74
2023-05-09T15:38:48.324Z,20.19
2023-05-09T15:41:15.409Z,20.03
2023-05-09T15:43:42.097Z,20.03
2023-05-09T15:46:08.865Z,20.47
2023-05-09T15:48:35.383Z,20.50
2023-05-09T15:51:03.919Z,20.70
2023-05-09T15:53:30.454Z,20.52
2023-05-09T15:55:57.038Z,21.02
2023-05-09T15:58:23.604Z,20.66
2023-05-09T16:00:50.193Z,21.13
2023-05-09T16:03:16.846Z,21.19
2023-05-09T16:05:43.807Z,20.87
2023-05-09T16:08:10.616Z,21.14
2023-05-09T16:10:37.048Z,20.92
2023-05-09T16:13:03.951Z,21.02
2023-05-09T16:15:30.509Z,21.01
2023-05-09T16:17:57.020Z,21.37
2023-05-09T16:20:23.577Z,21.17
2023-05-09T16:22:50.182Z,21.22
2023-05-09T16:25:16.913Z,21.26
2023-05-09T16:27:43.493Z,21.01
2023-05-09T16:30:10.481Z,20.99
2023-05-09T16:32:37.101Z,21.25
2023-05-09T16:35:04.174Z,21.25
2023-05-09T16:37:31.060Z,20.93
2023-05-09T16:39:59.405Z,20.51
2023-05-09T16:42:26.133Z,20.41
2023-05-09T16:44:52.642Z,20.43
2023-05-09T16:47:19.162Z,20.14
2023-05-09T16:49:46.021Z,19.69
2023-05-09T16:52:12.753Z,20.15
2023-05-09T16:54:39.567Z,20.17
2023-05-09T16:57:06.112Z,20.13
2023-05-09T16:59:32.851Z,20.34
2023-05-09T17:01:59.952Z,20.60
2023-05-09T17:04:27.414Z,20.50
2023-05-09T17:06:54.019Z,20.22
2023-05-09T17:09:20.634Z,20.26
2023-05-09T17:11:48.213Z,19.59
2023-05-09T17:14:14.776Z,18.92
2023-05-09T17:16:41.288Z,19.37
2023-05-09T17:19:07.790Z,18.88
2023-05-09T17:21:34.860Z,18.60
2023-05-09T17:24:02.143Z,18.81
2023-05-09T17:26:29.647Z,19.03
2023-05-09T17:28:56.268Z,19.44
2023-05-09T17:31:22.875Z,19.74
2023-05-09T17:33:49.519Z,19.83
2023-05-09T17:36:16.258Z,19.69
2023-05-09T17:38:43.157Z,19.63
2023-05-09T17:41:09.857Z,19.46
2023-05-09T17:43:36.369Z,19.82
2023-05-09T17:46:03.757Z,19.26
2023-05-09T17:48:30.313Z,19.47
2023-05-09T17:50:56.894Z,18.85
2023-05-09T17:53:23.603Z,18.79
2023-05-09T17:55:50.518Z,18.87
2023-05-09T17:58:16.998Z,19.44
2023-05-09T18:00:44.623Z,19.75
2023-05-09T18:03:11.414Z,19.73
2023-05-09T18:05:38.216Z,19.61
2023-05-09T18:08:05.610Z,19.68
2023-05-09T18:10:32.372Z,19.62
2023-05-09T18:12:59.050Z,19.85
2023-05-09T18:15:26.321Z,19.94
2023-05-09T18:17:54.694Z,19.96
2023-05-09T18:20:21.487Z,20.22
2023-05-09T18:22:48.063Z,20.25
2023-05-09T18:25:14.582Z,20.35
2023-05-09T18:27:41.090Z,20.43
2023-05-09T18:30:08.166Z,20.24
2023-05-09T18:32:34.641Z,20.35
2023-05-09T18:35:01.149Z,20.20
2023-05-09T18:37:27.813Z,19.71
2023-05-09T18:39:54.354Z,20.20
2023-05-09T18:42:20.849Z,20.15
2023-05-09T18:44:47.332Z,20.35
2023-05-09T18:47:13.999Z,20.23
2023-05-09T18:49:41.205Z,20.15
2023-05-09T18:52:09.171Z,19.95
2023-05-09T18:54:36.536Z,19.97
2023-05-09T18:57:03.314Z,19.86
2023-05-09T18:59:29.816Z,20.01
2023-05-09T19:01:56.249Z,19.50
2023-05-09T19:04:22.926Z,19.06
2023-05-09T19:06:49.531Z,19.68
2023-05-09T19:09:16.615Z,19.52
2023-05-09T19:11:43.325Z,19.36
2023-05-09T19:14:09.993Z,18.90
2023-05-09T19:16:36.668Z,18.77
2023-05-09T19:19:03.340Z,18.90
2023-05-09T19:21:30.202Z,18.93
2023-05-09T19:23:56.693Z,19.29
2023-05-09T19:26:23.351Z,19.30
2023-05-09T19:28:49.914Z,19.45
2023-05-09T19:31:18.938Z,19.07
2023-05-09T19:33:47.476Z,18.85
2023-05-09T19:36:14.262Z,18.75
2023-05-09T19:38:41.222Z,18.78
2023-05-09T19:41:07.896Z,19.22
2023-05-09T19:43:34.971Z,19.35
2023-05-09T19:46:01.572Z,19.43
2023-05-09T19:48:28.115Z,19.68
2023-05-09T19:50:58.470Z,19.30
2023-05-09T19:53:25.284Z,19.48
2023-05-09T19:55:52.200Z,18.91
2023-05-09T19:58:18.734Z,19.18
2023-05-09T20:00:45.871Z,19.26
2023-05-09T20:03:12.616Z,18.92
2023-05-09T20:05:39.516Z,19.47
2023-05-09T20:08:06.191Z,19.39
2023-05-09T20:10:32.972Z,19.21
2023-05-09T20:13:00.890Z,19.24
2023-05-09T20:15:27.836Z,19.23
2023-05-09T20:17:54.435Z,19.35
2023-05-09T20:20:21.513Z,19.30
2023-05-09T20:22:48.037Z,19.53
2023-05-09T20:25:14.753Z,19.56
2023-05-09T20:27:41.449Z,19.61
2023-05-09T20:30:08.396Z,19.55
2023-05-09T20:32:35.130Z,19.71
2023-05-09T20:35:02.007Z,19.65
2023-05-09T20:37:28.493Z,19.45
2023-05-09T20:39:54.981Z,19.69
2023-05-09T20:42:23.227Z,19.51
2023-05-09T20:44:51.453Z,19.37
2023-05-09T20:47:17.923Z,19.78
2023-05-09T20:49:44.397Z,19.78
2023-05-09T20:52:11.022Z,19.98
2023-05-09T20:54:37.661Z,19.49
2023-05-09T20:57:04.177Z,18.61
2023-05-09T20:59:31.007Z,18.48
2023-05-09T21:01:57.645Z,18.94
2023-05-09T21:04:24.276Z,18.78
2023-05-09T21:06:50.823Z,18.78
2023-05-09T21:09:17.334Z,18.87
2023-05-09T21:11:43.994Z,18.59
2023-05-09T21:14:10.916Z,18.68
2023-05-09T21:16:37.717Z,18.50
2023-05-09T21:19:06.043Z,18.83
2023-05-09T21:21:35.531Z,18.41
2023-05-09T21:24:04.233Z,18.45
2023-05-09T21:26:30.856Z,18.17
2023-05-09T21:28:57.550Z,18.35
2023-05-09T21:31:24.098Z,18.65
2023-05-09T21:33:51.976Z,18.84
2023-05-09T21:36:18.491Z,18.60
2023-05-09T21:38:45.443Z,18.40
2023-05-09T21:41:11.933Z,18.15
2023-05-09T21:43:38.702Z,18.55
2023-05-09T21:46:05.984Z,18.56
2023-05-09T21:48:32.815Z,18.32
2023-05-09T21:51:03.380Z,18.71
2023-05-09T21:53:29.946Z,18.47
2023-05-09T21:55:56.479Z,18.69
2023-05-09T21:58:22.950Z,18.90
2023-05-09T22:00:49.576Z,18.54
2023-05-09T22:03:16.213Z,18.51
2023-05-09T22:05:42.735Z,18.24
2023-05-09T22:08:09.266Z,17.98
2023-05-09T22:10:37.408Z,18.30
2023-05-09T22:13:03.925Z,18.31
2023-05-09T22:15:30.396Z,18.42
2023-05-09T22:17:56.871Z,18.54
2023-05-09T22:20:23.722Z,18.47
2023-05-09T22:22:50.377Z,18.54
2023-05-09T22:25:17.612Z,18.53
2023-05-09T22:27:44.117Z,18.38
2023-05-09T22:30:12.346Z,18.14
2023-05-09T22:32:39.608Z,18.01
2023-05-09T22:35:06.880Z,17.44
2023-05-09T22:37:33.425Z,17.24
2023-05-09T22:40:01.508Z,17.14
2023-05-09T22:42:29.373Z,17.08
2023-05-09T22:44:56.066Z,16.94
2023-05-09T22:47:22.932Z,17.51
2023-05-09T22:49:49.962Z,17.39
2023-05-09T22:52:17.140Z,17.28
2023-05-09T22:54:43.726Z,17.00
2023-05-09T22:57:10.700Z,17.23
2023-05-09T22:59:37.191Z,17.10
2023-05-09T23:02:04.661Z,16.41
2023-05-09T23:04:31.156Z,16.32
2023-05-09T23:06:57.737Z,16.55
2023-05-09T23:09:24.363Z,16.41
2023-05-09T23:11:51.515Z,16.78
2023-05-09T23:14:18.331Z,16.94
2023-05-09T23:16:44.770Z,17.04
2023-05-09T23:19:11.562Z,17.06
2023-05-09T23:21:38.265Z,17.13
2023-05-09T23:24:04.896Z,16.97
2023-05-09T23:26:31.332Z,17.52
2023-05-09T23:28:57.891Z,17.17
2023-05-09T23:31:24.411Z,16.61
2023-05-09T23:33:50.908Z,16.80
2023-05-09T23:36:17.594Z,16.91
2023-05-09T23:38:44.158Z,16.66
2023-05-09T23:41:10.801Z,17.09
2023-05-09T23:43:37.695Z,16.82
2023-05-09T23:46:04.346Z,16.67
2023-05-09T23:48:30.933Z,16.54
2023-05-09T23:50:57.827Z,16.59
2023-05-09T23:53:24.577Z,16.77
2023-05-09T23:55:51.430Z,16.50
2023-05-09T23:58:17.990Z,16.55
